Land O Lakes, Florida
Current Conditions -  °F | °C
As of 4:53 PM on Friday 24 Oct 2014 (Local Time) from KBKV Reporting Station
Few Clouds Few Clouds  
Wind Chill: 78°   Ceiling: Unl
Heat Index: 79°   Visibility: 10mi
Dew Point: 56°   Wind: 9mph
Humidity: 46%   Direction: 60°ENE
Pressure: 29.92"   Gusts: NA
Location:  28.28°N, 82.45°W
Report Text: KBKV 242053Z AUTO 06008KT 10SM FEW048 26/13 A2992 RMK AO2 SLP130 T02560133 56020
Loading
Personal Weather Stations






























Interactive Weather Map
Tropical Storm Tracking
New forecast layout! Learn more

10-Day Weather Forecast

Advertisements
Track Severe Weather on mobile